sensor_id;sensor_type;location;lat;lon;timestamp;pressure;altitude;pressure_sealevel;temperature;humidity
22257;BME280;11297;42.686;23.374;2022-07-15T00:01:54;95086.72;;;21.95;49.93
22257;BME280;11297;42.686;23.374;2022-07-15T00:04:20;95086.72;;;21.91;49.92
22257;BME280;11297;42.686;23.374;2022-07-15T00:06:45;95079.13;;;21.86;49.92
22257;BME280;11297;42.686;23.374;2022-07-15T00:09:11;95085.19;;;21.90;49.93
22257;BME280;11297;42.686;23.374;2022-07-15T00:11:36;95083.69;;;21.89;49.86
22257;BME280;11297;42.686;23.374;2022-07-15T00:14:02;95087.81;;;21.90;49.83
22257;BME280;11297;42.686;23.374;2022-07-15T00:16:27;95091.63;;;21.89;49.42
22257;BME280;11297;42.686;23.374;2022-07-15T00:18:53;95092.00;;;21.88;49.24
22257;BME280;11297;42.686;23.374;2022-07-15T00:21:18;95092.28;;;21.79;49.81
22257;BME280;11297;42.686;23.374;2022-07-15T00:23:44;95086.63;;;21.81;50.06
22257;BME280;11297;42.686;23.374;2022-07-15T00:26:09;95087.75;;;21.80;50.04
22257;BME280;11297;42.686;23.374;2022-07-15T00:28:35;95095.31;;;21.81;50.17
22257;BME280;11297;42.686;23.374;2022-07-15T00:31:01;95092.66;;;21.78;50.00
22257;BME280;11297;42.686;23.374;2022-07-15T00:33:26;95096.41;;;21.73;50.36
22257;BME280;11297;42.686;23.374;2022-07-15T00:35:52;95097.53;;;21.72;50.31
22257;BME280;11297;42.686;23.374;2022-07-15T00:38:17;95100.16;;;21.72;50.15
22257;BME280;11297;42.686;23.374;2022-07-15T00:40:44;95091.84;;;21.70;50.38
22257;BME280;11297;42.686;23.374;2022-07-15T00:43:10;95099.00;;;21.66;50.78
22257;BME280;11297;42.686;23.374;2022-07-15T00:45:36;95091.47;;;21.68;50.47
22257;BME280;11297;42.686;23.374;2022-07-15T00:48:01;95085.81;;;21.70;50.49
22257;BME280;11297;42.686;23.374;2022-07-15T00:50:29;95089.19;;;21.70;50.66
22257;BME280;11297;42.686;23.374;2022-07-15T00:53:00;95081.84;;;21.50;51.12
22257;BME280;11297;42.686;23.374;2022-07-15T00:55:29;95084.81;;;21.45;51.14
22257;BME280;11297;42.686;23.374;2022-07-15T00:58:00;95078.00;;;21.44;51.45
22257;BME280;11297;42.686;23.374;2022-07-15T01:00:27;95077.59;;;21.42;51.46
22257;BME280;11297;42.686;23.374;2022-07-15T01:02:53;95081.81;;;21.47;51.27
22257;BME280;11297;42.686;23.374;2022-07-15T01:05:20;95074.88;;;21.35;51.61
22257;BME280;11297;42.686;23.374;2022-07-15T01:07:46;95070.38;;;21.36;51.44
22257;BME280;11297;42.686;23.374;2022-07-15T01:10:12;95068.59;;;21.07;52.31
22257;BME280;11297;42.686;23.374;2022-07-15T01:12:38;95070.13;;;21.08;52.04
22257;BME280;11297;42.686;23.374;2022-07-15T01:15:06;95070.00;;;20.98;52.33
22257;BME280;11297;42.686;23.374;2022-07-15T01:17:32;95076.84;;;21.02;52.68
22257;BME280;11297;42.686;23.374;2022-07-15T01:19:57;95069.28;;;21.01;53.15
22257;BME280;11297;42.686;23.374;2022-07-15T01:22:23;95073.47;;;21.05;53.22
22257;BME280;11297;42.686;23.374;2022-07-15T01:24:49;95071.94;;;21.04;52.68
22257;BME280;11297;42.686;23.374;2022-07-15T01:27:15;95074.09;;;20.92;52.95
22257;BME280;11297;42.686;23.374;2022-07-15T01:29:40;95066.03;;;20.78;52.97
22257;BME280;11297;42.686;23.374;2022-07-15T01:32:06;95057.31;;;20.74;52.96
22257;BME280;11297;42.686;23.374;2022-07-15T01:34:31;95065.19;;;20.70;53.15
22257;BME280;11297;42.686;23.374;2022-07-15T01:36:57;95062.47;;;20.67;53.19
22257;BME280;11297;42.686;23.374;2022-07-15T01:39:22;95052.59;;;20.61;53.34
22257;BME280;11297;42.686;23.374;2022-07-15T01:41:48;95055.22;;;20.61;53.61
22257;BME280;11297;42.686;23.374;2022-07-15T01:44:13;95061.25;;;20.61;53.88
22257;BME280;11297;42.686;23.374;2022-07-15T01:46:41;95061.72;;;20.66;53.74
22257;BME280;11297;42.686;23.374;2022-07-15T01:49:07;95068.09;;;20.65;53.91
22257;BME280;11297;42.686;23.374;2022-07-15T01:51:49;95066.53;;;20.61;53.53
22257;BME280;11297;42.686;23.374;2022-07-15T01:54:16;95067.19;;;20.51;54.04
22257;BME280;11297;42.686;23.374;2022-07-15T01:56:41;95067.91;;;20.48;54.39
22257;BME280;11297;42.686;23.374;2022-07-15T01:59:07;95071.63;;;20.44;54.95
22257;BME280;11297;42.686;23.374;2022-07-15T02:01:32;95077.91;;;20.36;54.74
22257;BME280;11297;42.686;23.374;2022-07-15T02:03:58;95066.06;;;20.19;54.87
22257;BME280;11297;42.686;23.374;2022-07-15T02:06:23;95069.44;;;20.20;54.97
22257;BME280;11297;42.686;23.374;2022-07-15T02:08:49;95074.75;;;20.23;54.73
22257;BME280;11297;42.686;23.374;2022-07-15T02:11:14;95066.75;;;20.16;54.39
22257;BME280;11297;42.686;23.374;2022-07-15T02:13:39;95078.06;;;20.17;53.51
22257;BME280;11297;42.686;23.374;2022-07-15T02:16:05;95073.91;;;20.16;53.45
22257;BME280;11297;42.686;23.374;2022-07-15T02:18:31;95065.91;;;20.09;53.68
22257;BME280;11297;42.686;23.374;2022-07-15T02:20:56;95072.53;;;20.00;53.38
22257;BME280;11297;42.686;23.374;2022-07-15T02:23:22;95079.31;;;19.97;53.50
22257;BME280;11297;42.686;23.374;2022-07-15T02:25:48;95073.63;;;19.95;53.54
22257;BME280;11297;42.686;23.374;2022-07-15T02:28:14;95074.63;;;19.87;53.90
22257;BME280;11297;42.686;23.374;2022-07-15T02:30:41;95076.78;;;19.82;53.57
22257;BME280;11297;42.686;23.374;2022-07-15T02:33:07;95073.38;;;19.81;52.99
22257;BME280;11297;42.686;23.374;2022-07-15T02:35:33;95075.31;;;19.84;53.70
22257;BME280;11297;42.686;23.374;2022-07-15T02:37:59;95075.75;;;19.86;52.74
22257;BME280;11297;42.686;23.374;2022-07-15T02:40:25;95073.09;;;19.86;53.02
22257;BME280;11297;42.686;23.374;2022-07-15T02:42:57;95074.22;;;19.85;52.96
22257;BME280;11297;42.686;23.374;2022-07-15T02:45:25;95069.94;;;19.77;52.88
22257;BME280;11297;42.686;23.374;2022-07-15T02:47:51;95062.34;;;19.72;52.64
22257;BME280;11297;42.686;23.374;2022-07-15T02:50:17;95072.66;;;19.59;52.52
22257;BME280;11297;42.686;23.374;2022-07-15T02:52:43;95070.81;;;19.63;53.20
22257;BME280;11297;42.686;23.374;2022-07-15T02:55:10;95068.66;;;19.68;52.93
22257;BME280;11297;42.686;23.374;2022-07-15T02:57:37;95069.72;;;19.64;52.86
22257;BME280;11297;42.686;23.374;2022-07-15T03:00:05;95065.63;;;19.66;52.92
22257;BME280;11297;42.686;23.374;2022-07-15T03:02:31;95062.91;;;19.63;52.75
22257;BME280;11297;42.686;23.374;2022-07-15T03:04:56;95069.03;;;19.66;52.94
22257;BME280;11297;42.686;23.374;2022-07-15T03:07:22;95065.72;;;19.73;52.77
22257;BME280;11297;42.686;23.374;2022-07-15T03:09:47;95065.38;;;19.74;52.59
22257;BME280;11297;42.686;23.374;2022-07-15T03:12:13;95068.78;;;19.75;52.91
22257;BME280;11297;42.686;23.374;2022-07-15T03:14:39;95059.38;;;19.77;52.92
22257;BME280;11297;42.686;23.374;2022-07-15T03:17:05;95074.81;;;19.75;53.01
22257;BME280;11297;42.686;23.374;2022-07-15T03:19:31;95071.41;;;19.75;52.55
22257;BME280;11297;42.686;23.374;2022-07-15T03:21:56;95069.78;;;19.67;52.46
22257;BME280;11297;42.686;23.374;2022-07-15T03:24:22;95067.13;;;19.67;52.90
22257;BME280;11297;42.686;23.374;2022-07-15T03:26:47;95059.22;;;19.67;52.85
22257;BME280;11297;42.686;23.374;2022-07-15T03:29:13;95065.13;;;19.57;52.93
22257;BME280;11297;42.686;23.374;2022-07-15T03:31:42;95058.63;;;19.51;53.60
22257;BME280;11297;42.686;23.374;2022-07-15T03:34:08;95067.59;;;19.24;54.40
22257;BME280;11297;42.686;23.374;2022-07-15T03:36:35;95055.47;;;19.20;54.73
22257;BME280;11297;42.686;23.374;2022-07-15T03:39:03;95056.69;;;19.26;55.42
22257;BME280;11297;42.686;23.374;2022-07-15T03:41:28;95052.75;;;19.39;55.28
22257;BME280;11297;42.686;23.374;2022-07-15T03:43:54;95058.91;;;19.46;55.22
22257;BME280;11297;42.686;23.374;2022-07-15T03:46:19;95050.88;;;19.62;55.02
22257;BME280;11297;42.686;23.374;2022-07-15T03:48:45;95054.09;;;19.77;54.27
22257;BME280;11297;42.686;23.374;2022-07-15T03:51:10;95056.03;;;19.80;54.39
22257;BME280;11297;42.686;23.374;2022-07-15T03:53:36;95066.47;;;19.96;54.15
22257;BME280;11297;42.686;23.374;2022-07-15T03:56:01;95060.06;;;19.97;54.36
22257;BME280;11297;42.686;23.374;2022-07-15T03:58:26;95072.84;;;19.95;54.82
22257;BME280;11297;42.686;23.374;2022-07-15T04:00:52;95064.94;;;19.95;55.10
22257;BME280;11297;42.686;23.374;2022-07-15T04:03:17;95061.56;;;19.94;55.39
22257;BME280;11297;42.686;23.374;2022-07-15T04:05:43;95062.66;;;19.93;55.04
22257;BME280;11297;42.686;23.374;2022-07-15T04:08:09;95069.09;;;20.21;53.70
22257;BME280;11297;42.686;23.374;2022-07-15T04:10:35;95057.22;;;20.38;53.24
22257;BME280;11297;42.686;23.374;2022-07-15T04:13:01;95070.84;;;20.43;53.17
22257;BME280;11297;42.686;23.374;2022-07-15T04:15:26;95066.03;;;20.49;52.92
22257;BME280;11297;42.686;23.374;2022-07-15T04:17:52;95069.34;;;20.42;53.12
22257;BME280;11297;42.686;23.374;2022-07-15T04:20:17;95067.25;;;20.58;52.94
22257;BME280;11297;42.686;23.374;2022-07-15T04:22:44;95043.44;;;20.51;52.44
22257;BME280;11297;42.686;23.374;2022-07-15T04:25:11;95064.47;;;20.73;52.34
22257;BME280;11297;42.686;23.374;2022-07-15T04:27:37;95057.78;;;20.83;52.42
22257;BME280;11297;42.686;23.374;2022-07-15T04:30:04;95063.88;;;20.87;52.44
22257;BME280;11297;42.686;23.374;2022-07-15T04:32:31;95068.56;;;21.04;52.15
22257;BME280;11297;42.686;23.374;2022-07-15T04:34:56;95075.47;;;21.15;51.46
22257;BME280;11297;42.686;23.374;2022-07-15T04:37:22;95078.16;;;21.18;51.75
22257;BME280;11297;42.686;23.374;2022-07-15T04:39:47;95082.97;;;21.10;51.95
22257;BME280;11297;42.686;23.374;2022-07-15T04:42:13;95084.59;;;21.21;51.93
22257;BME280;11297;42.686;23.374;2022-07-15T04:44:39;95078.63;;;21.31;51.54
22257;BME280;11297;42.686;23.374;2022-07-15T04:47:04;95080.53;;;21.34;51.17
22257;BME280;11297;42.686;23.374;2022-07-15T04:49:30;95081.81;;;21.47;50.81
22257;BME280;11297;42.686;23.374;2022-07-15T04:52:14;95068.34;;;21.62;50.33
22257;BME280;11297;42.686;23.374;2022-07-15T04:54:40;95074.94;;;21.85;50.11
22257;BME280;11297;42.686;23.374;2022-07-15T04:57:05;95078.47;;;22.03;49.33
22257;BME280;11297;42.686;23.374;2022-07-15T04:59:31;95074.78;;;22.18;49.12
22257;BME280;11297;42.686;23.374;2022-07-15T05:01:57;95076.81;;;22.38;48.33
22257;BME280;11297;42.686;23.374;2022-07-15T05:04:23;95080.66;;;22.48;48.38
22257;BME280;11297;42.686;23.374;2022-07-15T05:06:48;95081.81;;;22.54;47.80
22257;BME280;11297;42.686;23.374;2022-07-15T05:09:13;95089.06;;;22.63;47.73
22257;BME280;11297;42.686;23.374;2022-07-15T05:11:39;95077.38;;;22.78;47.42
22257;BME280;11297;42.686;23.374;2022-07-15T05:14:04;95075.88;;;22.88;47.28
22257;BME280;11297;42.686;23.374;2022-07-15T05:16:30;95076.59;;;22.78;47.63
22257;BME280;11297;42.686;23.374;2022-07-15T05:18:56;95077.78;;;22.87;46.75
22257;BME280;11297;42.686;23.374;2022-07-15T05:21:21;95082.38;;;22.97;46.98
22257;BME280;11297;42.686;23.374;2022-07-15T05:23:47;95078.22;;;23.03;47.00
22257;BME280;11297;42.686;23.374;2022-07-15T05:26:12;95074.06;;;23.09;47.56
22257;BME280;11297;42.686;23.374;2022-07-15T05:28:38;95077.13;;;23.21;47.28
22257;BME280;11297;42.686;23.374;2022-07-15T05:31:07;95075.19;;;23.01;48.03
22257;BME280;11297;42.686;23.374;2022-07-15T05:33:32;95072.94;;;23.24;47.46
22257;BME280;11297;42.686;23.374;2022-07-15T05:35:58;95071.47;;;23.40;47.33
22257;BME280;11297;42.686;23.374;2022-07-15T05:38:24;95068.47;;;23.55;47.10
22257;BME280;11297;42.686;23.374;2022-07-15T05:40:50;95076.81;;;23.75;47.61
22257;BME280;11297;42.686;23.374;2022-07-15T05:43:15;95065.75;;;24.25;49.04
22257;BME280;11297;42.686;23.374;2022-07-15T05:45:41;95068.72;;;24.54;45.68
22257;BME280;11297;42.686;23.374;2022-07-15T05:48:07;95065.28;;;24.64;44.66
22257;BME280;11297;42.686;23.374;2022-07-15T05:50:33;95067.03;;;24.92;44.81
22257;BME280;11297;42.686;23.374;2022-07-15T05:52:59;95081.25;;;25.36;44.98
22257;BME280;11297;42.686;23.374;2022-07-15T05:55:24;95066.19;;;25.69;44.63
22257;BME280;11297;42.686;23.374;2022-07-15T05:57:50;95066.97;;;25.70;43.58
22257;BME280;11297;42.686;23.374;2022-07-15T06:00:15;95061.47;;;25.87;42.75
22257;BME280;11297;42.686;23.374;2022-07-15T06:02:41;95062.06;;;26.05;44.83
22257;BME280;11297;42.686;23.374;2022-07-15T06:05:08;95069.75;;;26.40;43.81
22257;BME280;11297;42.686;23.374;2022-07-15T06:07:35;95072.56;;;26.22;41.72
22257;BME280;11297;42.686;23.374;2022-07-15T06:10:02;95070.78;;;26.09;43.34
22257;BME280;11297;42.686;23.374;2022-07-15T06:12:27;95075.56;;;26.31;41.30
22257;BME280;11297;42.686;23.374;2022-07-15T06:14:53;95074.81;;;26.31;42.34
22257;BME280;11297;42.686;23.374;2022-07-15T06:17:18;95074.47;;;26.58;44.25
22257;BME280;11297;42.686;23.374;2022-07-15T06:19:44;95068.88;;;26.83;40.93
22257;BME280;11297;42.686;23.374;2022-07-15T06:22:09;95066.88;;;26.60;41.31
22257;BME280;11297;42.686;23.374;2022-07-15T06:24:35;95065.50;;;26.46;40.83
22257;BME280;11297;42.686;23.374;2022-07-15T06:27:00;95064.78;;;26.42;40.60
22257;BME280;11297;42.686;23.374;2022-07-15T06:29:26;95066.53;;;26.55;42.81
22257;BME280;11297;42.686;23.374;2022-07-15T06:31:51;95057.47;;;26.79;41.06
22257;BME280;11297;42.686;23.374;2022-07-15T06:34:16;95068.22;;;26.72;41.54
22257;BME280;11297;42.686;23.374;2022-07-15T06:36:42;95069.47;;;26.97;41.88
22257;BME280;11297;42.686;23.374;2022-07-15T06:39:08;95066.50;;;26.88;41.20
22257;BME280;11297;42.686;23.374;2022-07-15T06:41:33;95066.00;;;26.67;41.38
22257;BME280;11297;42.686;23.374;2022-07-15T06:43:59;95065.81;;;26.84;41.70
22257;BME280;11297;42.686;23.374;2022-07-15T06:46:25;95062.03;;;26.82;41.45
22257;BME280;11297;42.686;23.374;2022-07-15T06:48:51;95058.75;;;27.00;41.68
22257;BME280;11297;42.686;23.374;2022-07-15T06:51:16;95054.19;;;27.27;40.98
22257;BME280;11297;42.686;23.374;2022-07-15T06:53:42;95053.03;;;27.02;41.40
22257;BME280;11297;42.686;23.374;2022-07-15T06:56:07;95055.00;;;27.24;40.83
22257;BME280;11297;42.686;23.374;2022-07-15T06:58:34;95051.06;;;27.32;39.55
22257;BME280;11297;42.686;23.374;2022-07-15T07:00:59;95050.00;;;27.26;39.95
22257;BME280;11297;42.686;23.374;2022-07-15T07:03:25;95052.28;;;27.28;40.37
22257;BME280;11297;42.686;23.374;2022-07-15T07:05:51;95052.59;;;27.33;40.74
22257;BME280;11297;42.686;23.374;2022-07-15T07:08:16;95058.69;;;27.83;44.71
22257;BME280;11297;42.686;23.374;2022-07-15T07:10:42;95053.88;;;28.20;39.02
22257;BME280;11297;42.686;23.374;2022-07-15T07:13:07;95055.66;;;28.26;41.49
22257;BME280;11297;42.686;23.374;2022-07-15T07:15:32;95042.25;;;28.49;38.26
22257;BME280;11297;42.686;23.374;2022-07-15T07:17:58;95050.00;;;28.63;38.93
22257;BME280;11297;42.686;23.374;2022-07-15T07:20:23;95038.50;;;28.85;38.47
22257;BME280;11297;42.686;23.374;2022-07-15T07:22:48;95043.91;;;29.17;37.05
22257;BME280;11297;42.686;23.374;2022-07-15T07:25:14;95052.25;;;29.03;39.28
22257;BME280;11297;42.686;23.374;2022-07-15T07:27:39;95045.00;;;29.19;36.33
22257;BME280;11297;42.686;23.374;2022-07-15T07:30:05;95041.59;;;29.19;36.68
22257;BME280;11297;42.686;23.374;2022-07-15T07:32:31;95038.34;;;29.27;36.86
22257;BME280;11297;42.686;23.374;2022-07-15T07:34:57;95031.72;;;29.16;37.24
22257;BME280;11297;42.686;23.374;2022-07-15T07:37:22;95036.22;;;29.19;39.03
22257;BME280;11297;42.686;23.374;2022-07-15T07:39:49;95032.78;;;29.53;38.54
22257;BME280;11297;42.686;23.374;2022-07-15T07:42:15;95031.84;;;29.76;36.14
22257;BME280;11297;42.686;23.374;2022-07-15T07:44:41;95034.09;;;29.77;35.69
22257;BME280;11297;42.686;23.374;2022-07-15T07:47:08;95025.50;;;29.86;37.33
22257;BME280;11297;42.686;23.374;2022-07-15T07:49:33;95034.72;;;30.00;34.28
22257;BME280;11297;42.686;23.374;2022-07-15T07:51:59;95032.53;;;29.64;35.11
22257;BME280;11297;42.686;23.374;2022-07-15T07:54:24;95042.25;;;29.74;36.05
22257;BME280;11297;42.686;23.374;2022-07-15T07:56:50;95039.91;;;29.92;37.08
22257;BME280;11297;42.686;23.374;2022-07-15T07:59:15;95037.47;;;29.97;34.45
22257;BME280;11297;42.686;23.374;2022-07-15T08:01:40;95029.25;;;29.41;35.12
22257;BME280;11297;42.686;23.374;2022-07-15T08:04:06;95037.81;;;29.51;34.28
22257;BME280;11297;42.686;23.374;2022-07-15T08:06:32;95034.63;;;29.72;36.35
22257;BME280;11297;42.686;23.374;2022-07-15T08:08:59;95025.59;;;29.82;35.99
22257;BME280;11297;42.686;23.374;2022-07-15T08:11:25;95025.88;;;30.16;35.13
22257;BME280;11297;42.686;23.374;2022-07-15T08:13:50;95025.22;;;30.40;33.39
22257;BME280;11297;42.686;23.374;2022-07-15T08:16:16;95027.44;;;30.29;32.00
22257;BME280;11297;42.686;23.374;2022-07-15T08:18:42;95014.13;;;30.26;31.94
22257;BME280;11297;42.686;23.374;2022-07-15T08:21:08;95021.59;;;30.18;32.75
22257;BME280;11297;42.686;23.374;2022-07-15T08:23:34;95001.88;;;30.25;31.64
22257;BME280;11297;42.686;23.374;2022-07-15T08:25:59;95013.44;;;30.22;32.09
22257;BME280;11297;42.686;23.374;2022-07-15T08:28:26;95014.31;;;30.19;33.36
22257;BME280;11297;42.686;23.374;2022-07-15T08:30:51;95015.94;;;30.00;33.97
22257;BME280;11297;42.686;23.374;2022-07-15T08:33:17;95020.88;;;30.02;34.24
22257;BME280;11297;42.686;23.374;2022-07-15T08:35:43;95011.75;;;29.84;33.98
22257;BME280;11297;42.686;23.374;2022-07-15T08:38:09;95018.19;;;30.02;33.68
22257;BME280;11297;42.686;23.374;2022-07-15T08:40:37;95018.53;;;30.32;33.65
22257;BME280;11297;42.686;23.374;2022-07-15T08:43:06;95001.66;;;30.47;32.71
22257;BME280;11297;42.686;23.374;2022-07-15T08:45:34;95001.66;;;30.47;34.05
22257;BME280;11297;42.686;23.374;2022-07-15T08:48:01;94999.97;;;30.66;33.09
22257;BME280;11297;42.686;23.374;2022-07-15T08:50:28;94996.47;;;30.81;32.94
22257;BME280;11297;42.686;23.374;2022-07-15T08:52:54;94996.97;;;30.76;33.27
22257;BME280;11297;42.686;23.374;2022-07-15T08:55:20;95001.03;;;30.56;33.33
22257;BME280;11297;42.686;23.374;2022-07-15T08:57:47;94994.59;;;30.66;33.09
22257;BME280;11297;42.686;23.374;2022-07-15T09:00:13;94993.31;;;30.70;34.53
22257;BME280;11297;42.686;23.374;2022-07-15T09:02:38;95002.00;;;30.90;33.76
22257;BME280;11297;42.686;23.374;2022-07-15T09:05:31;94988.25;;;31.13;31.98
22257;BME280;11297;42.686;23.374;2022-07-15T09:08:07;94996.09;;;31.32;34.46
22257;BME280;11297;42.686;23.374;2022-07-15T09:10:55;94991.59;;;31.54;32.55
22257;BME280;11297;42.686;23.374;2022-07-15T09:13:34;94994.63;;;31.77;34.47
22257;BME280;11297;42.686;23.374;2022-07-15T09:16:12;94989.44;;;32.07;33.50
22257;BME280;11297;42.686;23.374;2022-07-15T09:18:45;94984.75;;;32.41;31.14
22257;BME280;11297;42.686;23.374;2022-07-15T09:23:40;94982.31;;;32.35;29.28
22257;BME280;11297;42.686;23.374;2022-07-15T09:26:25;94979.63;;;32.13;29.75
22257;BME280;11297;42.686;23.374;2022-07-15T09:28:51;94981.50;;;31.91;30.62
22257;BME280;11297;42.686;23.374;2022-07-15T09:31:46;94977.09;;;31.85;31.73
22257;BME280;11297;42.686;23.374;2022-07-15T09:34:59;94975.81;;;31.89;32.04
22257;BME280;11297;42.686;23.374;2022-07-15T09:37:25;94984.84;;;31.83;30.80
22257;BME280;11297;42.686;23.374;2022-07-15T09:39:55;94988.81;;;31.91;34.42
22257;BME280;11297;42.686;23.374;2022-07-15T09:42:21;94980.22;;;32.17;30.40
22257;BME280;11297;42.686;23.374;2022-07-15T09:44:46;94983.69;;;32.18;29.54
22257;BME280;11297;42.686;23.374;2022-07-15T09:47:17;94973.53;;;32.22;29.64
22257;BME280;11297;42.686;23.374;2022-07-15T09:49:43;94971.28;;;31.99;30.14
22257;BME280;11297;42.686;23.374;2022-07-15T09:52:11;94968.72;;;31.95;30.96
22257;BME280;11297;42.686;23.374;2022-07-15T09:54:48;94968.53;;;32.11;31.43
22257;BME280;11297;42.686;23.374;2022-07-15T09:57:16;94973.56;;;32.43;31.80
22257;BME280;11297;42.686;23.374;2022-07-15T09:59:43;94967.31;;;32.67;30.45
22257;BME280;11297;42.686;23.374;2022-07-15T10:02:09;94963.75;;;33.00;31.84
22257;BME280;11297;42.686;23.374;2022-07-15T10:04:35;94963.81;;;32.88;28.84
22257;BME280;11297;42.686;23.374;2022-07-15T10:07:01;94967.25;;;32.88;29.78
22257;BME280;11297;42.686;23.374;2022-07-15T10:09:32;94944.78;;;32.83;28.18
22257;BME280;11297;42.686;23.374;2022-07-15T10:20:17;94953.44;;;32.78;28.53
22257;BME280;11297;42.686;23.374;2022-07-15T10:28:33;94948.06;;;32.78;28.47
22257;BME280;11297;42.686;23.374;2022-07-15T10:31:21;94946.72;;;32.82;27.78
22257;BME280;11297;42.686;23.374;2022-07-15T10:39:16;94938.94;;;32.84;27.63
22257;BME280;11297;42.686;23.374;2022-07-15T10:42:08;94934.09;;;32.70;29.07
22257;BME280;11297;42.686;23.374;2022-07-15T10:44:36;94933.00;;;32.37;28.90
22257;BME280;11297;42.686;23.374;2022-07-15T10:49:39;94929.56;;;32.37;27.32
22257;BME280;11297;42.686;23.374;2022-07-15T10:52:31;94912.88;;;32.21;29.13
22257;BME280;11297;42.686;23.374;2022-07-15T11:05:26;94921.28;;;32.53;30.05
22257;BME280;11297;42.686;23.374;2022-07-15T11:07:51;94918.00;;;32.49;30.66
22257;BME280;11297;42.686;23.374;2022-07-15T11:10:19;94913.28;;;32.40;27.21
22257;BME280;11297;42.686;23.374;2022-07-15T11:15:25;94919.13;;;32.18;31.91
22257;BME280;11297;42.686;23.374;2022-07-15T11:17:53;94912.72;;;32.24;27.76
22257;BME280;11297;42.686;23.374;2022-07-15T11:20:33;94909.25;;;32.15;26.70
22257;BME280;11297;42.686;23.374;2022-07-15T11:23:00;94903.09;;;32.14;26.31
22257;BME280;11297;42.686;23.374;2022-07-15T11:30:40;94910.28;;;31.96;31.12
22257;BME280;11297;42.686;23.374;2022-07-15T11:33:09;94898.09;;;32.04;33.84
22257;BME280;11297;42.686;23.374;2022-07-15T11:35:51;94905.69;;;32.18;27.31
22257;BME280;11297;42.686;23.374;2022-07-15T11:38:22;94898.72;;;32.08;26.90
22257;BME280;11297;42.686;23.374;2022-07-15T11:40:58;94898.88;;;31.92;29.63
22257;BME280;11297;42.686;23.374;2022-07-15T11:43:43;94899.44;;;31.87;29.33
22257;BME280;11297;42.686;23.374;2022-07-15T11:46:29;94904.50;;;31.51;26.09
22257;BME280;11297;42.686;23.374;2022-07-15T11:48:55;94894.13;;;31.41;26.18
22257;BME280;11297;42.686;23.374;2022-07-15T11:51:30;94895.72;;;31.51;28.61
22257;BME280;11297;42.686;23.374;2022-07-15T11:53:57;94887.38;;;31.58;28.04
22257;BME280;11297;42.686;23.374;2022-07-15T11:56:24;94891.19;;;31.36;29.42
22257;BME280;11297;42.686;23.374;2022-07-15T11:58:51;94896.88;;;31.50;29.02
22257;BME280;11297;42.686;23.374;2022-07-15T12:01:23;94889.34;;;31.57;29.20
22257;BME280;11297;42.686;23.374;2022-07-15T12:03:51;94887.28;;;31.61;30.03
22257;BME280;11297;42.686;23.374;2022-07-15T12:06:28;94888.91;;;31.80;28.06
22257;BME280;11297;42.686;23.374;2022-07-15T12:08:59;94883.97;;;31.79;28.79
22257;BME280;11297;42.686;23.374;2022-07-15T12:11:33;94880.25;;;31.76;26.99
22257;BME280;11297;42.686;23.374;2022-07-15T12:14:07;94876.91;;;31.72;28.55
22257;BME280;11297;42.686;23.374;2022-07-15T12:16:41;94881.34;;;31.66;28.84
22257;BME280;11297;42.686;23.374;2022-07-15T12:19:13;94882.53;;;31.65;27.83
22257;BME280;11297;42.686;23.374;2022-07-15T12:21:40;94881.63;;;31.47;28.77
22257;BME280;11297;42.686;23.374;2022-07-15T12:26:37;94883.22;;;31.57;28.27
22257;BME280;11297;42.686;23.374;2022-07-15T12:29:04;94868.47;;;31.61;28.11
22257;BME280;11297;42.686;23.374;2022-07-15T12:31:32;94872.56;;;31.53;28.45
22257;BME280;11297;42.686;23.374;2022-07-15T12:33:58;94874.63;;;31.37;33.86
22257;BME280;11297;42.686;23.374;2022-07-15T12:36:27;94870.25;;;31.43;27.38
22257;BME280;11297;42.686;23.374;2022-07-15T12:39:14;94875.72;;;31.39;27.24
22257;BME280;11297;42.686;23.374;2022-07-15T12:41:43;94870.56;;;31.45;29.42
22257;BME280;11297;42.686;23.374;2022-07-15T12:44:10;94864.94;;;31.52;27.79
22257;BME280;11297;42.686;23.374;2022-07-15T12:49:41;94864.56;;;31.29;28.15
22257;BME280;11297;42.686;23.374;2022-07-15T12:54:41;94855.66;;;31.19;28.08
22257;BME280;11297;42.686;23.374;2022-07-15T13:02:21;94857.81;;;31.24;27.42
22257;BME280;11297;42.686;23.374;2022-07-15T13:04:47;94859.00;;;31.23;29.71
22257;BME280;11297;42.686;23.374;2022-07-15T13:07:13;94859.19;;;31.29;29.03
22257;BME280;11297;42.686;23.374;2022-07-15T13:09:39;94864.56;;;31.41;28.17
22257;BME280;11297;42.686;23.374;2022-07-15T13:12:05;94858.53;;;31.49;27.99
22257;BME280;11297;42.686;23.374;2022-07-15T13:14:31;94858.78;;;31.64;28.59
22257;BME280;11297;42.686;23.374;2022-07-15T13:16:56;94849.22;;;31.63;27.98
22257;BME280;11297;42.686;23.374;2022-07-15T13:19:22;94856.34;;;31.57;27.77
22257;BME280;11297;42.686;23.374;2022-07-15T13:21:47;94854.19;;;31.52;28.42
22257;BME280;11297;42.686;23.374;2022-07-15T13:24:13;94845.75;;;31.41;28.71
22257;BME280;11297;42.686;23.374;2022-07-15T13:26:38;94861.31;;;31.46;28.77
22257;BME280;11297;42.686;23.374;2022-07-15T13:29:04;94854.31;;;31.48;30.01
22257;BME280;11297;42.686;23.374;2022-07-15T13:31:29;94855.78;;;31.62;28.16
22257;BME280;11297;42.686;23.374;2022-07-15T13:33:55;94849.75;;;31.58;30.01
22257;BME280;11297;42.686;23.374;2022-07-15T13:36:20;94844.78;;;31.69;30.66
22257;BME280;11297;42.686;23.374;2022-07-15T13:38:45;94851.56;;;31.73;29.73
22257;BME280;11297;42.686;23.374;2022-07-15T13:41:11;94854.59;;;31.84;29.32
22257;BME280;11297;42.686;23.374;2022-07-15T13:43:36;94845.88;;;31.92;28.93
22257;BME280;11297;42.686;23.374;2022-07-15T13:46:02;94848.44;;;31.96;29.84
22257;BME280;11297;42.686;23.374;2022-07-15T13:48:27;94842.81;;;32.03;29.73